sensor_id;sensor_type;location;lat;lon;timestamp;P1;durP1;ratioP1;P2;durP2;ratioP2
12947;SDS011;6539;49.476;8.484;2022-08-24T00:01:30;8.25;;;3.83;;
12947;SDS011;6539;49.476;8.484;2022-08-24T00:03:56;4.30;;;3.42;;
12947;SDS011;6539;49.476;8.484;2022-08-24T00:06:23;6.93;;;3.72;;
12947;SDS011;6539;49.476;8.484;2022-08-24T00:08:53;5.90;;;3.47;;
12947;SDS011;6539;49.476;8.484;2022-08-24T00:11:21;6.60;;;3.42;;
12947;SDS011;6539;49.476;8.484;2022-08-24T00:13:50;5.25;;;3.80;;
12947;SDS011;6539;49.476;8.484;2022-08-24T00:16:17;3.53;;;3.20;;
12947;SDS011;6539;49.476;8.484;2022-08-24T00:18:48;5.65;;;3.22;;
12947;SDS011;6539;49.476;8.484;2022-08-24T00:21:17;6.32;;;3.60;;
12947;SDS011;6539;49.476;8.484;2022-08-24T00:23:45;5.63;;;3.42;;
12947;SDS011;6539;49.476;8.484;2022-08-24T00:26:13;5.60;;;2.90;;
12947;SDS011;6539;49.476;8.484;2022-08-24T00:28:40;6.80;;;3.10;;
12947;SDS011;6539;49.476;8.484;2022-08-24T00:31:08;5.90;;;3.47;;
12947;SDS011;6539;49.476;8.484;2022-08-24T00:33:38;4.32;;;3.17;;
12947;SDS011;6539;49.476;8.484;2022-08-24T00:36:04;4.45;;;3.33;;
12947;SDS011;6539;49.476;8.484;2022-08-24T00:38:31;8.77;;;3.63;;
12947;SDS011;6539;49.476;8.484;2022-08-24T00:40:59;5.10;;;4.00;;
12947;SDS011;6539;49.476;8.484;2022-08-24T00:43:32;8.35;;;3.85;;
12947;SDS011;6539;49.476;8.484;2022-08-24T00:48:57;4.70;;;3.70;;
12947;SDS011;6539;49.476;8.484;2022-08-24T00:51:36;4.75;;;3.53;;
12947;SDS011;6539;49.476;8.484;2022-08-24T00:54:32;6.03;;;3.33;;
12947;SDS011;6539;49.476;8.484;2022-08-24T00:57:05;4.85;;;2.90;;
12947;SDS011;6539;49.476;8.484;2022-08-24T00:59:38;5.07;;;3.40;;
12947;SDS011;6539;49.476;8.484;2022-08-24T01:02:16;6.63;;;3.33;;
12947;SDS011;6539;49.476;8.484;2022-08-24T01:04:51;5.03;;;3.00;;
12947;SDS011;6539;49.476;8.484;2022-08-24T01:07:28;4.63;;;3.42;;
12947;SDS011;6539;49.476;8.484;2022-08-24T01:10:09;4.05;;;3.50;;
12947;SDS011;6539;49.476;8.484;2022-08-24T01:12:40;4.47;;;3.22;;
12947;SDS011;6539;49.476;8.484;2022-08-24T01:15:10;4.47;;;3.38;;
12947;SDS011;6539;49.476;8.484;2022-08-24T01:17:36;8.82;;;3.67;;
12947;SDS011;6539;49.476;8.484;2022-08-24T01:20:24;6.75;;;3.58;;
12947;SDS011;6539;49.476;8.484;2022-08-24T01:25:32;7.07;;;4.15;;
12947;SDS011;6539;49.476;8.484;2022-08-24T01:28:09;7.90;;;3.55;;
12947;SDS011;6539;49.476;8.484;2022-08-24T01:30:44;3.65;;;3.30;;
12947;SDS011;6539;49.476;8.484;2022-08-24T01:33:11;4.93;;;3.60;;
12947;SDS011;6539;49.476;8.484;2022-08-24T01:36:38;4.93;;;3.17;;
12947;SDS011;6539;49.476;8.484;2022-08-24T01:39:05;7.25;;;3.40;;
12947;SDS011;6539;49.476;8.484;2022-08-24T01:41:41;5.25;;;3.30;;
12947;SDS011;6539;49.476;8.484;2022-08-24T01:44:07;5.43;;;3.80;;
12947;SDS011;6539;49.476;8.484;2022-08-24T01:46:36;6.18;;;3.90;;
12947;SDS011;6539;49.476;8.484;2022-08-24T01:49:02;8.48;;;3.53;;
12947;SDS011;6539;49.476;8.484;2022-08-24T01:51:30;3.80;;;3.40;;
12947;SDS011;6539;49.476;8.484;2022-08-24T01:53:59;7.55;;;3.60;;
12947;SDS011;6539;49.476;8.484;2022-08-24T01:56:27;11.07;;;3.97;;
12947;SDS011;6539;49.476;8.484;2022-08-24T01:58:55;6.07;;;3.45;;
12947;SDS011;6539;49.476;8.484;2022-08-24T02:01:27;6.65;;;3.90;;
12947;SDS011;6539;49.476;8.484;2022-08-24T02:04:00;7.50;;;3.42;;
12947;SDS011;6539;49.476;8.484;2022-08-24T02:06:28;6.75;;;3.60;;
12947;SDS011;6539;49.476;8.484;2022-08-24T02:08:57;8.05;;;3.55;;
12947;SDS011;6539;49.476;8.484;2022-08-24T02:11:24;4.47;;;3.60;;
12947;SDS011;6539;49.476;8.484;2022-08-24T02:13:52;3.83;;;3.28;;
12947;SDS011;6539;49.476;8.484;2022-08-24T02:16:21;5.28;;;3.90;;
12947;SDS011;6539;49.476;8.484;2022-08-24T02:18:48;6.20;;;4.00;;
12947;SDS011;6539;49.476;8.484;2022-08-24T02:21:13;9.60;;;3.95;;
12947;SDS011;6539;49.476;8.484;2022-08-24T02:23:42;5.68;;;3.50;;
12947;SDS011;6539;49.476;8.484;2022-08-24T02:26:11;6.20;;;4.55;;
12947;SDS011;6539;49.476;8.484;2022-08-24T02:28:41;6.07;;;4.60;;
12947;SDS011;6539;49.476;8.484;2022-08-24T02:31:08;5.63;;;4.40;;
12947;SDS011;6539;49.476;8.484;2022-08-24T02:33:38;9.05;;;3.75;;
12947;SDS011;6539;49.476;8.484;2022-08-24T02:36:10;5.72;;;3.92;;
12947;SDS011;6539;49.476;8.484;2022-08-24T02:38:38;6.07;;;3.90;;
12947;SDS011;6539;49.476;8.484;2022-08-24T02:41:04;7.53;;;4.35;;
12947;SDS011;6539;49.476;8.484;2022-08-24T02:43:30;6.93;;;3.90;;
12947;SDS011;6539;49.476;8.484;2022-08-24T02:45:59;6.97;;;4.15;;
12947;SDS011;6539;49.476;8.484;2022-08-24T02:48:27;4.97;;;4.10;;
12947;SDS011;6539;49.476;8.484;2022-08-24T02:50:54;4.32;;;3.92;;
12947;SDS011;6539;49.476;8.484;2022-08-24T02:53:34;7.10;;;4.45;;
12947;SDS011;6539;49.476;8.484;2022-08-24T02:56:05;8.05;;;4.00;;
12947;SDS011;6539;49.476;8.484;2022-08-24T02:58:33;4.38;;;3.67;;
12947;SDS011;6539;49.476;8.484;2022-08-24T03:00:59;5.95;;;3.92;;
12947;SDS011;6539;49.476;8.484;2022-08-24T03:03:27;6.57;;;4.30;;
12947;SDS011;6539;49.476;8.484;2022-08-24T03:05:55;9.55;;;4.57;;
12947;SDS011;6539;49.476;8.484;2022-08-24T03:08:21;7.70;;;4.40;;
12947;SDS011;6539;49.476;8.484;2022-08-24T03:10:50;7.43;;;4.50;;
12947;SDS011;6539;49.476;8.484;2022-08-24T03:13:18;7.90;;;5.07;;
12947;SDS011;6539;49.476;8.484;2022-08-24T03:15:44;9.40;;;4.75;;
12947;SDS011;6539;49.476;8.484;2022-08-24T03:18:10;10.10;;;4.38;;
12947;SDS011;6539;49.476;8.484;2022-08-24T03:20:39;13.27;;;4.90;;
12947;SDS011;6539;49.476;8.484;2022-08-24T03:23:05;8.02;;;4.38;;
12947;SDS011;6539;49.476;8.484;2022-08-24T03:25:35;7.00;;;4.60;;
12947;SDS011;6539;49.476;8.484;2022-08-24T03:28:01;9.20;;;5.40;;
12947;SDS011;6539;49.476;8.484;2022-08-24T03:30:27;7.35;;;5.07;;
12947;SDS011;6539;49.476;8.484;2022-08-24T03:32:53;6.90;;;4.32;;
12947;SDS011;6539;49.476;8.484;2022-08-24T03:35:19;9.77;;;4.88;;
12947;SDS011;6539;49.476;8.484;2022-08-24T03:37:50;8.38;;;4.90;;
12947;SDS011;6539;49.476;8.484;2022-08-24T03:40:16;6.13;;;4.13;;
12947;SDS011;6539;49.476;8.484;2022-08-24T03:42:44;13.13;;;4.32;;
12947;SDS011;6539;49.476;8.484;2022-08-24T03:45:12;7.07;;;5.53;;
12947;SDS011;6539;49.476;8.484;2022-08-24T03:47:39;6.70;;;4.72;;
12947;SDS011;6539;49.476;8.484;2022-08-24T03:50:05;10.57;;;4.65;;
12947;SDS011;6539;49.476;8.484;2022-08-24T03:52:36;8.52;;;4.75;;
12947;SDS011;6539;49.476;8.484;2022-08-24T03:55:08;6.30;;;4.77;;
12947;SDS011;6539;49.476;8.484;2022-08-24T03:57:36;5.82;;;4.10;;
12947;SDS011;6539;49.476;8.484;2022-08-24T04:00:08;8.70;;;5.10;;
12947;SDS011;6539;49.476;8.484;2022-08-24T04:02:36;9.10;;;4.97;;
12947;SDS011;6539;49.476;8.484;2022-08-24T04:05:03;8.55;;;5.00;;
12947;SDS011;6539;49.476;8.484;2022-08-24T04:07:31;18.20;;;5.20;;
12947;SDS011;6539;49.476;8.484;2022-08-24T04:09:57;6.50;;;4.78;;
12947;SDS011;6539;49.476;8.484;2022-08-24T04:12:27;8.38;;;5.43;;
12947;SDS011;6539;49.476;8.484;2022-08-24T04:14:54;12.80;;;5.43;;
12947;SDS011;6539;49.476;8.484;2022-08-24T04:17:20;9.27;;;5.28;;
12947;SDS011;6539;49.476;8.484;2022-08-24T04:19:46;7.93;;;4.87;;
12947;SDS011;6539;49.476;8.484;2022-08-24T04:22:24;12.60;;;5.40;;
12947;SDS011;6539;49.476;8.484;2022-08-24T04:24:52;10.03;;;5.47;;
12947;SDS011;6539;49.476;8.484;2022-08-24T04:27:18;11.38;;;4.82;;
12947;SDS011;6539;49.476;8.484;2022-08-24T04:29:44;7.60;;;5.30;;
12947;SDS011;6539;49.476;8.484;2022-08-24T04:32:13;9.05;;;5.20;;
12947;SDS011;6539;49.476;8.484;2022-08-24T04:34:42;6.93;;;4.47;;
12947;SDS011;6539;49.476;8.484;2022-08-24T04:37:09;7.28;;;4.80;;
12947;SDS011;6539;49.476;8.484;2022-08-24T04:39:36;9.67;;;5.80;;
12947;SDS011;6539;49.476;8.484;2022-08-24T04:42:02;9.50;;;5.07;;
12947;SDS011;6539;49.476;8.484;2022-08-24T04:44:29;9.88;;;5.32;;
12947;SDS011;6539;49.476;8.484;2022-08-24T04:46:57;12.30;;;5.00;;
12947;SDS011;6539;49.476;8.484;2022-08-24T04:49:25;11.93;;;5.27;;
12947;SDS011;6539;49.476;8.484;2022-08-24T04:51:51;12.60;;;4.78;;
12947;SDS011;6539;49.476;8.484;2022-08-24T04:54:20;10.07;;;4.90;;
12947;SDS011;6539;49.476;8.484;2022-08-24T04:56:46;10.67;;;5.37;;
12947;SDS011;6539;49.476;8.484;2022-08-24T04:59:14;7.53;;;4.77;;
12947;SDS011;6539;49.476;8.484;2022-08-24T05:01:40;10.27;;;5.60;;
12947;SDS011;6539;49.476;8.484;2022-08-24T05:04:10;8.60;;;4.90;;
12947;SDS011;6539;49.476;8.484;2022-08-24T05:06:36;7.30;;;5.00;;
12947;SDS011;6539;49.476;8.484;2022-08-24T05:09:08;7.50;;;4.97;;
12947;SDS011;6539;49.476;8.484;2022-08-24T05:11:37;10.60;;;4.97;;
12947;SDS011;6539;49.476;8.484;2022-08-24T05:14:06;9.63;;;4.90;;
12947;SDS011;6539;49.476;8.484;2022-08-24T05:16:32;10.50;;;5.70;;
12947;SDS011;6539;49.476;8.484;2022-08-24T05:19:02;11.83;;;5.00;;
12947;SDS011;6539;49.476;8.484;2022-08-24T05:21:31;10.90;;;5.53;;
12947;SDS011;6539;49.476;8.484;2022-08-24T05:23:59;10.93;;;5.43;;
12947;SDS011;6539;49.476;8.484;2022-08-24T05:26:26;13.77;;;5.40;;
12947;SDS011;6539;49.476;8.484;2022-08-24T05:28:54;10.33;;;5.33;;
12947;SDS011;6539;49.476;8.484;2022-08-24T05:31:26;12.20;;;5.60;;
12947;SDS011;6539;49.476;8.484;2022-08-24T05:33:58;12.33;;;5.80;;
12947;SDS011;6539;49.476;8.484;2022-08-24T05:36:27;11.30;;;5.40;;
12947;SDS011;6539;49.476;8.484;2022-08-24T05:39:03;10.83;;;5.83;;
12947;SDS011;6539;49.476;8.484;2022-08-24T05:41:33;11.20;;;5.57;;
12947;SDS011;6539;49.476;8.484;2022-08-24T05:44:01;21.10;;;7.33;;
12947;SDS011;6539;49.476;8.484;2022-08-24T05:46:27;24.08;;;7.85;;
12947;SDS011;6539;49.476;8.484;2022-08-24T05:48:58;13.80;;;5.70;;
12947;SDS011;6539;49.476;8.484;2022-08-24T05:51:28;12.45;;;5.60;;
12947;SDS011;6539;49.476;8.484;2022-08-24T05:53:56;13.93;;;6.00;;
12947;SDS011;6539;49.476;8.484;2022-08-24T05:56:23;15.25;;;5.82;;
12947;SDS011;6539;49.476;8.484;2022-08-24T05:58:49;18.23;;;6.57;;
12947;SDS011;6539;49.476;8.484;2022-08-24T06:01:22;14.75;;;5.72;;
12947;SDS011;6539;49.476;8.484;2022-08-24T06:03:56;8.63;;;5.63;;
12947;SDS011;6539;49.476;8.484;2022-08-24T06:06:23;16.50;;;6.38;;
12947;SDS011;6539;49.476;8.484;2022-08-24T06:08:53;9.68;;;5.43;;
12947;SDS011;6539;49.476;8.484;2022-08-24T06:11:26;14.05;;;6.93;;
12947;SDS011;6539;49.476;8.484;2022-08-24T06:14:09;12.57;;;6.40;;
12947;SDS011;6539;49.476;8.484;2022-08-24T06:16:43;28.05;;;8.55;;
12947;SDS011;6539;49.476;8.484;2022-08-24T06:19:17;26.23;;;8.80;;
12947;SDS011;6539;49.476;8.484;2022-08-24T06:21:44;17.25;;;6.63;;
12947;SDS011;6539;49.476;8.484;2022-08-24T06:24:15;13.82;;;6.97;;
12947;SDS011;6539;49.476;8.484;2022-08-24T06:27:01;12.65;;;6.93;;
12947;SDS011;6539;49.476;8.484;2022-08-24T06:29:46;12.85;;;6.10;;
12947;SDS011;6539;49.476;8.484;2022-08-24T06:32:19;12.52;;;6.20;;
12947;SDS011;6539;49.476;8.484;2022-08-24T06:34:45;11.20;;;6.78;;
12947;SDS011;6539;49.476;8.484;2022-08-24T06:37:11;8.93;;;5.88;;
12947;SDS011;6539;49.476;8.484;2022-08-24T06:39:39;11.05;;;6.43;;
12947;SDS011;6539;49.476;8.484;2022-08-24T06:42:05;12.68;;;6.20;;
12947;SDS011;6539;49.476;8.484;2022-08-24T06:44:31;16.02;;;6.47;;
12947;SDS011;6539;49.476;8.484;2022-08-24T06:46:58;15.65;;;7.10;;
12947;SDS011;6539;49.476;8.484;2022-08-24T06:49:26;14.48;;;6.38;;
12947;SDS011;6539;49.476;8.484;2022-08-24T06:51:52;14.00;;;6.88;;
12947;SDS011;6539;49.476;8.484;2022-08-24T06:54:18;13.77;;;6.97;;
12947;SDS011;6539;49.476;8.484;2022-08-24T06:56:47;11.32;;;6.57;;
12947;SDS011;6539;49.476;8.484;2022-08-24T06:59:13;17.65;;;6.68;;
12947;SDS011;6539;49.476;8.484;2022-08-24T07:01:42;15.85;;;5.97;;
12947;SDS011;6539;49.476;8.484;2022-08-24T07:04:08;11.15;;;6.95;;
12947;SDS011;6539;49.476;8.484;2022-08-24T07:06:34;14.75;;;6.15;;
12947;SDS011;6539;49.476;8.484;2022-08-24T07:09:03;13.02;;;6.82;;
12947;SDS011;6539;49.476;8.484;2022-08-24T07:11:30;16.83;;;7.32;;
12947;SDS011;6539;49.476;8.484;2022-08-24T07:13:57;12.90;;;6.88;;
12947;SDS011;6539;49.476;8.484;2022-08-24T07:16:26;20.13;;;8.23;;
12947;SDS011;6539;49.476;8.484;2022-08-24T07:18:52;16.13;;;6.78;;
12947;SDS011;6539;49.476;8.484;2022-08-24T07:21:21;16.50;;;6.72;;
12947;SDS011;6539;49.476;8.484;2022-08-24T07:23:47;13.10;;;5.43;;
12947;SDS011;6539;49.476;8.484;2022-08-24T07:26:20;14.95;;;6.38;;
12947;SDS011;6539;49.476;8.484;2022-08-24T07:28:58;13.05;;;6.10;;
12947;SDS011;6539;49.476;8.484;2022-08-24T07:31:37;14.90;;;6.53;;
12947;SDS011;6539;49.476;8.484;2022-08-24T07:34:07;12.23;;;5.32;;
12947;SDS011;6539;49.476;8.484;2022-08-24T07:36:38;14.10;;;5.20;;
12947;SDS011;6539;49.476;8.484;2022-08-24T07:39:05;16.02;;;6.10;;
12947;SDS011;6539;49.476;8.484;2022-08-24T07:41:36;12.20;;;6.13;;
12947;SDS011;6539;49.476;8.484;2022-08-24T07:44:08;11.55;;;6.50;;
12947;SDS011;6539;49.476;8.484;2022-08-24T07:46:37;10.50;;;5.72;;
12947;SDS011;6539;49.476;8.484;2022-08-24T07:49:05;19.90;;;12.48;;
12947;SDS011;6539;49.476;8.484;2022-08-24T07:51:32;15.45;;;5.55;;
12947;SDS011;6539;49.476;8.484;2022-08-24T07:54:00;11.40;;;5.30;;
12947;SDS011;6539;49.476;8.484;2022-08-24T07:56:27;13.57;;;5.00;;
12947;SDS011;6539;49.476;8.484;2022-08-24T07:58:53;8.45;;;4.68;;
12947;SDS011;6539;49.476;8.484;2022-08-24T08:01:19;7.38;;;4.63;;
12947;SDS011;6539;49.476;8.484;2022-08-24T08:03:46;11.80;;;5.40;;
12947;SDS011;6539;49.476;8.484;2022-08-24T08:06:12;10.45;;;5.45;;
12947;SDS011;6539;49.476;8.484;2022-08-24T08:08:39;12.45;;;5.80;;
12947;SDS011;6539;49.476;8.484;2022-08-24T08:11:08;16.02;;;12.18;;
12947;SDS011;6539;49.476;8.484;2022-08-24T08:13:34;11.32;;;5.85;;
12947;SDS011;6539;49.476;8.484;2022-08-24T08:16:03;7.25;;;4.78;;
12947;SDS011;6539;49.476;8.484;2022-08-24T08:18:32;10.90;;;5.05;;
12947;SDS011;6539;49.476;8.484;2022-08-24T08:20:58;12.07;;;5.13;;
12947;SDS011;6539;49.476;8.484;2022-08-24T08:23:26;7.00;;;5.05;;
12947;SDS011;6539;49.476;8.484;2022-08-24T08:26:11;8.10;;;5.20;;
12947;SDS011;6539;49.476;8.484;2022-08-24T08:28:43;10.73;;;5.15;;
12947;SDS011;6539;49.476;8.484;2022-08-24T08:31:10;10.25;;;4.93;;
12947;SDS011;6539;49.476;8.484;2022-08-24T08:33:36;10.73;;;7.60;;
12947;SDS011;6539;49.476;8.484;2022-08-24T08:36:07;10.88;;;5.90;;
12947;SDS011;6539;49.476;8.484;2022-08-24T08:38:39;14.15;;;5.65;;
12947;SDS011;6539;49.476;8.484;2022-08-24T08:43:47;10.13;;;4.88;;
12947;SDS011;6539;49.476;8.484;2022-08-24T08:59:11;11.27;;;4.45;;
12947;SDS011;6539;49.476;8.484;2022-08-24T09:05:14;12.48;;;5.32;;
12947;SDS011;6539;49.476;8.484;2022-08-24T09:17:12;12.85;;;4.88;;
12947;SDS011;6539;49.476;8.484;2022-08-24T09:23:32;10.70;;;4.43;;
12947;SDS011;6539;49.476;8.484;2022-08-24T09:26:30;10.63;;;5.20;;
12947;SDS011;6539;49.476;8.484;2022-08-24T09:34:45;8.13;;;4.03;;
12947;SDS011;6539;49.476;8.484;2022-08-24T09:49:18;16.75;;;4.60;;
12947;SDS011;6539;49.476;8.484;2022-08-24T09:55:52;5.82;;;3.72;;
12947;SDS011;6539;49.476;8.484;2022-08-24T09:58:31;9.95;;;3.83;;
12947;SDS011;6539;49.476;8.484;2022-08-24T10:01:52;11.50;;;4.32;;
12947;SDS011;6539;49.476;8.484;2022-08-24T10:05:08;5.75;;;3.63;;
12947;SDS011;6539;49.476;8.484;2022-08-24T10:10:44;14.27;;;5.07;;
12947;SDS011;6539;49.476;8.484;2022-08-24T10:16:26;10.93;;;4.60;;
12947;SDS011;6539;49.476;8.484;2022-08-24T10:25:33;15.20;;;5.43;;
12947;SDS011;6539;49.476;8.484;2022-08-24T10:31:22;8.63;;;3.95;;
12947;SDS011;6539;49.476;8.484;2022-08-24T10:34:19;5.80;;;3.90;;
12947;SDS011;6539;49.476;8.484;2022-08-24T10:37:22;9.13;;;3.95;;
12947;SDS011;6539;49.476;8.484;2022-08-24T10:40:30;5.55;;;3.33;;
12947;SDS011;6539;49.476;8.484;2022-08-24T10:43:11;9.02;;;3.63;;
12947;SDS011;6539;49.476;8.484;2022-08-24T10:46:38;10.60;;;4.10;;
12947;SDS011;6539;49.476;8.484;2022-08-24T10:52:10;5.50;;;3.40;;
12947;SDS011;6539;49.476;8.484;2022-08-24T10:55:14;6.15;;;3.85;;
12947;SDS011;6539;49.476;8.484;2022-08-24T11:01:16;5.68;;;3.80;;
12947;SDS011;6539;49.476;8.484;2022-08-24T11:06:39;13.38;;;3.90;;
12947;SDS011;6539;49.476;8.484;2022-08-24T11:09:46;4.18;;;3.20;;
12947;SDS011;6539;49.476;8.484;2022-08-24T11:15:03;7.38;;;3.58;;
12947;SDS011;6539;49.476;8.484;2022-08-24T11:17:56;4.07;;;3.17;;
12947;SDS011;6539;49.476;8.484;2022-08-24T11:25:54;3.60;;;3.00;;
12947;SDS011;6539;49.476;8.484;2022-08-24T11:28:38;4.72;;;2.83;;
12947;SDS011;6539;49.476;8.484;2022-08-24T11:31:26;6.25;;;2.97;;
12947;SDS011;6539;49.476;8.484;2022-08-24T11:34:05;6.65;;;2.80;;
12947;SDS011;6539;49.476;8.484;2022-08-24T11:37:00;5.47;;;2.45;;
12947;SDS011;6539;49.476;8.484;2022-08-24T11:39:36;6.07;;;3.05;;
12947;SDS011;6539;49.476;8.484;2022-08-24T11:45:14;6.25;;;2.58;;
12947;SDS011;6539;49.476;8.484;2022-08-24T11:51:26;4.07;;;3.00;;
12947;SDS011;6539;49.476;8.484;2022-08-24T11:54:32;2.83;;;2.40;;
12947;SDS011;6539;49.476;8.484;2022-08-24T11:57:39;6.63;;;2.67;;
12947;SDS011;6539;49.476;8.484;2022-08-24T12:00:19;4.07;;;2.60;;
12947;SDS011;6539;49.476;8.484;2022-08-24T12:08:26;2.95;;;2.50;;
12947;SDS011;6539;49.476;8.484;2022-08-24T12:17:01;3.17;;;2.28;;
12947;SDS011;6539;49.476;8.484;2022-08-24T12:19:49;4.20;;;2.25;;
12947;SDS011;6539;49.476;8.484;2022-08-24T12:22:23;3.30;;;2.40;;
12947;SDS011;6539;49.476;8.484;2022-08-24T12:24:56;3.40;;;2.20;;
12947;SDS011;6539;49.476;8.484;2022-08-24T12:27:47;2.80;;;2.35;;
12947;SDS011;6539;49.476;8.484;2022-08-24T12:30:15;8.63;;;2.53;;
12947;SDS011;6539;49.476;8.484;2022-08-24T12:35:41;4.30;;;2.47;;
12947;SDS011;6539;49.476;8.484;2022-08-24T12:38:26;4.88;;;2.83;;
12947;SDS011;6539;49.476;8.484;2022-08-24T12:43:39;4.70;;;2.67;;
12947;SDS011;6539;49.476;8.484;2022-08-24T12:46:14;4.82;;;2.42;;
12947;SDS011;6539;49.476;8.484;2022-08-24T12:49:01;2.95;;;2.50;;
12947;SDS011;6539;49.476;8.484;2022-08-24T13:00:07;4.93;;;2.47;;
12947;SDS011;6539;49.476;8.484;2022-08-24T13:02:56;3.70;;;2.67;;
12947;SDS011;6539;49.476;8.484;2022-08-24T13:05:36;2.38;;;2.17;;
12947;SDS011;6539;49.476;8.484;2022-08-24T13:08:13;2.65;;;2.33;;
12947;SDS011;6539;49.476;8.484;2022-08-24T13:11:09;3.38;;;2.30;;
12947;SDS011;6539;49.476;8.484;2022-08-24T13:34:57;3.05;;;2.35;;
12947;SDS011;6539;49.476;8.484;2022-08-24T13:37:25;4.55;;;2.72;;
12947;SDS011;6539;49.476;8.484;2022-08-24T13:42:53;2.58;;;2.25;;
12947;SDS011;6539;49.476;8.484;2022-08-24T13:51:12;3.72;;;2.33;;
12947;SDS011;6539;49.476;8.484;2022-08-24T13:56:45;3.63;;;2.40;;
12947;SDS011;6539;49.476;8.484;2022-08-24T14:11:18;3.30;;;2.22;;
12947;SDS011;6539;49.476;8.484;2022-08-24T14:45:50;2.88;;;2.22;;
12947;SDS011;6539;49.476;8.484;2022-08-24T14:51:58;2.42;;;1.90;;
12947;SDS011;6539;49.476;8.484;2022-08-24T15:11:06;2.50;;;2.10;;
12947;SDS011;6539;49.476;8.484;2022-08-24T15:24:33;3.60;;;1.92;;
12947;SDS011;6539;49.476;8.484;2022-08-24T15:27:17;3.83;;;2.00;;
12947;SDS011;6539;49.476;8.484;2022-08-24T15:30:20;5.75;;;2.40;;
12947;SDS011;6539;49.476;8.484;2022-08-24T15:35:45;4.30;;;2.40;;
12947;SDS011;6539;49.476;8.484;2022-08-24T15:38:37;2.40;;;2.20;;
12947;SDS011;6539;49.476;8.484;2022-08-24T15:41:17;3.35;;;2.25;;
12947;SDS011;6539;49.476;8.484;2022-08-24T15:44:15;4.78;;;2.47;;
12947;SDS011;6539;49.476;8.484;2022-08-24T15:47:11;4.90;;;2.63;;
12947;SDS011;6539;49.476;8.484;2022-08-24T15:49:55;2.80;;;2.53;;
12947;SDS011;6539;49.476;8.484;2022-08-24T15:52:48;2.25;;;2.03;;
12947;SDS011;6539;49.476;8.484;2022-08-24T15:55:39;2.47;;;2.15;;
12947;SDS011;6539;49.476;8.484;2022-08-24T16:01:28;4.35;;;3.65;;
12947;SDS011;6539;49.476;8.484;2022-08-24T16:04:12;6.03;;;4.38;;
12947;SDS011;6539;49.476;8.484;2022-08-24T16:07:20;6.97;;;6.07;;
12947;SDS011;6539;49.476;8.484;2022-08-24T16:10:09;5.07;;;4.43;;
12947;SDS011;6539;49.476;8.484;2022-08-24T16:12:37;10.20;;;6.65;;
12947;SDS011;6539;49.476;8.484;2022-08-24T16:15:13;3.20;;;2.90;;
12947;SDS011;6539;49.476;8.484;2022-08-24T16:22:54;2.45;;;2.22;;
12947;SDS011;6539;49.476;8.484;2022-08-24T16:25:32;2.65;;;2.17;;
12947;SDS011;6539;49.476;8.484;2022-08-24T16:28:11;3.55;;;2.40;;
12947;SDS011;6539;49.476;8.484;2022-08-24T16:31:03;2.70;;;1.90;;
12947;SDS011;6539;49.476;8.484;2022-08-24T16:35:59;2.80;;;2.10;;
12947;SDS011;6539;49.476;8.484;2022-08-24T16:38:28;3.47;;;2.35;;
12947;SDS011;6539;49.476;8.484;2022-08-24T16:40:58;3.17;;;2.00;;
12947;SDS011;6539;49.476;8.484;2022-08-24T16:43:29;2.95;;;2.10;;
12947;SDS011;6539;49.476;8.484;2022-08-24T16:45:59;2.30;;;2.10;;
12947;SDS011;6539;49.476;8.484;2022-08-24T16:48:30;4.72;;;2.30;;
12947;SDS011;6539;49.476;8.484;2022-08-24T16:50:58;3.65;;;2.25;;
12947;SDS011;6539;49.476;8.484;2022-08-24T16:53:25;4.50;;;2.05;;
12947;SDS011;6539;49.476;8.484;2022-08-24T16:55:54;4.55;;;2.40;;
12947;SDS011;6539;49.476;8.484;2022-08-24T16:58:22;2.50;;;2.30;;
12947;SDS011;6539;49.476;8.484;2022-08-24T17:00:56;2.47;;;2.10;;
12947;SDS011;6539;49.476;8.484;2022-08-24T17:03:26;2.13;;;1.95;;
12947;SDS011;6539;49.476;8.484;2022-08-24T17:05:52;2.33;;;1.75;;
12947;SDS011;6539;49.476;8.484;2022-08-24T17:08:20;3.65;;;1.73;;
12947;SDS011;6539;49.476;8.484;2022-08-24T17:10:46;2.10;;;1.90;;
12947;SDS011;6539;49.476;8.484;2022-08-24T17:13:16;2.92;;;1.85;;
12947;SDS011;6539;49.476;8.484;2022-08-24T17:15:45;2.17;;;1.90;;
12947;SDS011;6539;49.476;8.484;2022-08-24T17:18:11;4.05;;;2.10;;
12947;SDS011;6539;49.476;8.484;2022-08-24T17:20:38;2.25;;;2.05;;
12947;SDS011;6539;49.476;8.484;2022-08-24T17:23:06;4.72;;;1.80;;
12947;SDS011;6539;49.476;8.484;2022-08-24T17:25:32;2.45;;;2.10;;
12947;SDS011;6539;49.476;8.484;2022-08-24T17:28:01;2.90;;;1.80;;
12947;SDS011;6539;49.476;8.484;2022-08-24T17:30:28;3.38;;;1.98;;
12947;SDS011;6539;49.476;8.484;2022-08-24T17:32:54;4.53;;;2.20;;
12947;SDS011;6539;49.476;8.484;2022-08-24T17:35:20;2.83;;;2.10;;
12947;SDS011;6539;49.476;8.484;2022-08-24T17:37:50;2.80;;;2.28;;
12947;SDS011;6539;49.476;8.484;2022-08-24T17:40:18;2.47;;;2.00;;
12947;SDS011;6539;49.476;8.484;2022-08-24T17:42:48;2.83;;;2.40;;
12947;SDS011;6539;49.476;8.484;2022-08-24T17:45:14;3.85;;;2.13;;
12947;SDS011;6539;49.476;8.484;2022-08-24T17:47:42;2.50;;;2.08;;
12947;SDS011;6539;49.476;8.484;2022-08-24T17:50:13;3.55;;;1.90;;
12947;SDS011;6539;49.476;8.484;2022-08-24T17:52:41;2.10;;;1.90;;
12947;SDS011;6539;49.476;8.484;2022-08-24T17:55:13;3.33;;;1.98;;
12947;SDS011;6539;49.476;8.484;2022-08-24T17:57:41;2.40;;;1.70;;
12947;SDS011;6539;49.476;8.484;2022-08-24T18:00:08;3.47;;;2.42;;
12947;SDS011;6539;49.476;8.484;2022-08-24T18:02:36;3.83;;;2.30;;
12947;SDS011;6539;49.476;8.484;2022-08-24T18:05:03;7.43;;;2.20;;
12947;SDS011;6539;49.476;8.484;2022-08-24T18:07:32;3.25;;;2.38;;
12947;SDS011;6539;49.476;8.484;2022-08-24T18:10:05;2.97;;;2.00;;
12947;SDS011;6539;49.476;8.484;2022-08-24T18:12:39;2.67;;;1.92;;
12947;SDS011;6539;49.476;8.484;2022-08-24T18:15:07;4.50;;;2.42;;
12947;SDS011;6539;49.476;8.484;2022-08-24T18:17:37;4.95;;;2.25;;
12947;SDS011;6539;49.476;8.484;2022-08-24T18:20:09;2.28;;;1.80;;
12947;SDS011;6539;49.476;8.484;2022-08-24T18:22:50;5.28;;;2.15;;
12947;SDS011;6539;49.476;8.484;2022-08-24T18:25:17;3.58;;;2.20;;
12947;SDS011;6539;49.476;8.484;2022-08-24T18:27:47;4.85;;;2.33;;
12947;SDS011;6539;49.476;8.484;2022-08-24T18:30:21;2.10;;;1.90;;
12947;SDS011;6539;49.476;8.484;2022-08-24T18:32:51;6.47;;;1.95;;
12947;SDS011;6539;49.476;8.484;2022-08-24T18:35:17;5.80;;;2.70;;
12947;SDS011;6539;49.476;8.484;2022-08-24T18:37:43;5.57;;;2.65;;
12947;SDS011;6539;49.476;8.484;2022-08-24T18:40:12;3.40;;;2.53;;
12947;SDS011;6539;49.476;8.484;2022-08-24T18:42:41;4.47;;;2.00;;
12947;SDS011;6539;49.476;8.484;2022-08-24T18:45:08;4.22;;;2.42;;
12947;SDS011;6539;49.476;8.484;2022-08-24T18:47:35;4.85;;;2.90;;
12947;SDS011;6539;49.476;8.484;2022-08-24T18:50:03;3.38;;;1.95;;
12947;SDS011;6539;49.476;8.484;2022-08-24T18:52:31;3.90;;;2.30;;
12947;SDS011;6539;49.476;8.484;2022-08-24T18:54:57;3.17;;;2.22;;
12947;SDS011;6539;49.476;8.484;2022-08-24T18:57:32;4.18;;;2.13;;
12947;SDS011;6539;49.476;8.484;2022-08-24T19:00:01;4.15;;;2.30;;
12947;SDS011;6539;49.476;8.484;2022-08-24T19:02:29;4.20;;;2.42;;
12947;SDS011;6539;49.476;8.484;2022-08-24T19:05:00;3.25;;;2.40;;
12947;SDS011;6539;49.476;8.484;2022-08-24T19:07:41;4.55;;;2.47;;
12947;SDS011;6539;49.476;8.484;2022-08-24T19:10:13;4.20;;;2.00;;
12947;SDS011;6539;49.476;8.484;2022-08-24T19:12:46;8.40;;;2.60;;
12947;SDS011;6539;49.476;8.484;2022-08-24T19:15:18;5.22;;;2.25;;
12947;SDS011;6539;49.476;8.484;2022-08-24T19:17:44;2.67;;;2.28;;
12947;SDS011;6539;49.476;8.484;2022-08-24T19:20:12;7.82;;;2.72;;
12947;SDS011;6539;49.476;8.484;2022-08-24T19:22:41;8.13;;;3.30;;
12947;SDS011;6539;49.476;8.484;2022-08-24T19:25:13;12.07;;;3.22;;
12947;SDS011;6539;49.476;8.484;2022-08-24T19:27:46;3.75;;;2.85;;
12947;SDS011;6539;49.476;8.484;2022-08-24T19:30:12;8.15;;;2.70;;
12947;SDS011;6539;49.476;8.484;2022-08-24T19:32:38;3.28;;;2.58;;
12947;SDS011;6539;49.476;8.484;2022-08-24T19:35:08;6.97;;;3.40;;
12947;SDS011;6539;49.476;8.484;2022-08-24T19:37:42;6.00;;;2.70;;